• Join FlightAware (Why Join?)
  • Login
  • US Flag 
08:15AM EDT


 

Airport Tracker/Info


-or-


 

Live Flight TrackerFlight Track Log ✈ EJA922 ✈ 28-Jul-2013 ✈ KPWK - KTEB

Flight Track Log - Related Links

Times and Time Zones

All times are in EDT time to prevent confusion due to time zone crossing. See the EJA922 flight status page for this flight to view local times or setup timezone preferences in your user account.

Time Position Orientation Groundspeed Altitude Reporting Facility
EDT Latitude Longitude Course Direction KTS MPH feet Rate Location/Type
05:00PM 42.1622 -86.9442 92° East 441 507 21,400  Level Chicago Center
05:01PM 42.1583 -86.7722 92° East 455 524 23,400 1,800 Climbing Chicago Center
05:02PM 42.1558 -86.5617 91° East 465 535 25,200 1,440 Climbing Chicago Center
05:03PM 42.1503 -86.3817 92° East 477 549 26,500 1,260 Climbing Chicago Center
05:04PM 42.1458 -86.2003 92° East 485 558 27,900 1,140 Climbing Chicago Center
05:05PM 42.1425 -86.0131 91° East 496 571 28,900 1,140 Climbing Chicago Center
05:06PM 42.1408 -85.8325 91° East 502 578 30,300 1,980 Climbing Chicago Center
05:07PM 42.1394 -85.5972 90° East 523 602 33,100 2,340 Climbing Chicago Center
05:08PM 42.1378 -85.4064 91° East 519 597 35,200 1,500 Climbing Chicago Center
05:09PM 42.1361 -85.2211 91° East 505 581 36,200 960 Climbing Chicago Center
05:10PM 42.1344 -85.0294 91° East 512 589 37,200 960 Climbing Chicago Center
05:11PM 42.1458 -84.8392 85° East 513 590 38,200 840 Climbing Chicago Center
05:12PM 42.1597 -84.6117 85° East 511 588 39,000 360 Climbing Chicago Center
05:13PM 42.1567 -84.4169 91° East 519 597 39,000  Level Chicago Center
05:14PM 42.1494 -84.2494 93° East 517 595 39,000  Level Cleveland Center
05:15PM 42.1475 -84.0478 91° East 527 606 39,000  Level Cleveland Center
05:16PM 42.1428 -83.8486 92° East 532 612 39,000  Level Cleveland Center
05:17PM 42.1381 -83.6411 92° East 544 626 39,000  Level Cleveland Center
05:18PM 42.1347 -83.4533 91° East 553 636 39,000  Level Cleveland Center
05:19PM 42.1292 -83.2486 92° East 548 631 39,000  Level Cleveland Center
05:20PM 42.1233 -83.0411 92° East 548 631 39,000  Level Cleveland Center
05:21PM 42.1172 -82.8367 92° East 548 631 39,000  Level Cleveland Center
05:22PM 42.1147 -82.6322 91° East 548 631 39,000  Level Cleveland Center
05:23PM 42.1078 -82.4275 93° East 548 631 39,000  Level Cleveland Center
05:24PM 42.0961 -82.2258 94° East 548 631 39,000  Level Cleveland Center
05:25PM 42.0928 -82.0019 91° East 548 631 39,000  Level Cleveland Center
05:26PM 42.0828 -81.7975 94° East 548 631 39,000  Level Cleveland Center
05:27PM 42.0764 -81.5958 92° East 548 631 39,000  Level Cleveland Center
05:28PM 42.0675 -81.3886 93° East 548 631 39,000  Level Cleveland Center
05:29PM 42.0606 -81.1844 93° East 543 625 39,000  Level Cleveland Center
05:30PM 42.0508 -81.0081 94° East 538 619 39,000  Level Cleveland Center
05:31PM 42.0411 -80.7983 94° East 543 625 39,000  Level Cleveland Center
05:32PM 42.0308 -80.6000 94° East 538 619 39,000  Level Cleveland Center
05:33PM 42.0119 -80.4014 97° East 538 619 39,000  Level Cleveland Center
05:34PM 41.9947 -80.2003 97° East 538 619 39,000  Level Cleveland Center
05:35PM 41.9753 -79.9994 97° East 538 619 39,000  Level Cleveland Center
05:36PM 41.9572 -79.8042 97° East 538 619 39,000  Level Cleveland Center
05:37PM 41.9392 -79.6033 97° East 538 619 39,000  Level Cleveland Center
05:38PM 41.9186 -79.4028 98° East 538 619 39,000  Level Cleveland Center
05:39PM 41.8972 -79.1828 97° East 543 625 39,000  Level Cleveland Center
05:40PM 41.8781 -78.9825 97° East 543 625 39,000  Level Cleveland Center
05:41PM 41.8586 -78.8044 98° East 543 625 39,000  Level Cleveland Center
05:42PM 41.8386 -78.6044 98° East 543 625 39,000  Level Cleveland Center
05:43PM 41.8186 -78.4072 98° East 543 625 39,000 -240 Level Cleveland Center
05:45PM 41.7719 -77.9689 98° East 545 627 38,300 -720 Descending New York Center
05:46PM 41.7483 -77.7717 99° East 539 620 36,800 -1,620 Descending New York Center
05:47PM 41.7281 -77.5806 98° East 534 615 35,100 -1,080 Descending New York Center
05:48PM 41.7056 -77.3919 99° East 520 598 34,700 -780 Descending New York Center
05:49PM 41.6828 -77.1981 99° East 520 598 33,600 -1,080 Descending New York Center
05:50PM 41.6444 -77.0194 106° East 514 592 32,600 -1,020 Descending New York Center
05:51PM 41.5950 -76.8456 111° Southeast 503 579 31,600 -960 Descending New York Center
05:52PM 41.5511 -76.6864 110° East 503 579 30,700 -960 Descending New York Center
05:53PM 41.5036 -76.5103 110° East 503 579 29,700 -1,140 Descending New York Center
05:54PM 41.4581 -76.3294 109° East 509 586 28,500 -1,980 Descending New York Center
05:55PM 41.4003 -76.1364 112° Southeast 515 593 25,800 -2,640 Descending New York Center
05:56PM 41.3494 -75.9694 112° Southeast 505 581 23,200 -2,520 Descending New York Center
05:57PM 41.3044 -75.8031 110° East 491 565 20,800 -2,100 Descending New York Center
05:58PM 41.2494 -75.6719 119° Southeast 467 537 19,000 -900 Descending New York Center
05:59PM 41.1928 -75.5300 118° Southeast 447 514 19,000 -840 Level New York Center
06:00PM 41.1428 -75.3694 112° Southeast 428 493 17,400 -2,220 Descending New York Center
06:01PM 41.1061 -75.2403 111° Southeast 395 455 14,700 -2,880 Descending New York Center
06:02PM 41.0786 -75.1419 110° East 342 394 11,800 -3,180 Descending New York Center
06:03PM 41.0511 -75.0386 109° East 303 349 8,400 -2,940 Descending New York Center
06:04PM 41.0175 -74.9319 113° Southeast 290 334 6,000 -1,440 Descending New York Center
06:05PM 40.9997 -74.8400 104° East 284 327 5,600 -780 Descending New York Center
06:06PM 41.0039 -74.7219 87° East 279 321 4,500 -780 Descending New York Center
06:07PM 41.0000 -74.6167 93° East 282 325 4,100 -240 Descending New York TRACON
06:08PM 41.0167 -74.5167 78° East 273 314 4,100 -60 Level New York TRACON
06:09PM 41.0167 -74.4333 90° East 259 298 4,000 -540 Descending New York TRACON
06:10PM 41.0167 -74.3500 90° East 249 287 3,100 -480 Descending New York TRACON
06:11PM 41.0167 -74.2667 90° East 214 246 3,100 -420 Level New York TRACON
06:12PM 41.0167 -74.2000 90° East 168 193 2,300 -540 Descending New York TRACON
06:13PM 41.0333 -74.1333 72° East 174 200 2,100 -120 Descending New York TRACON
06:14PM 41.0167 -74.0833 114° Southeast 176 203 2,100  Level New York TRACON
06:15PM 40.9667 -74.0500 153° Southeast 169 194 2,100 -360 Level New York TRACON
06:16PM 40.9167 -74.0500 180° South 170 196 1,400 -720 Descending New York TRACON
06:17PM 40.8833 -74.0500 180° South 121 139 700 -720 Descending New York TRACON
06:20PM 40.8500 -74.0500 170° South  Level FlightAware Approximate
06:27PM 40.8501 -74.0608 170° South  Level Estimated